sensor_id;sensor_type;location;lat;lon;timestamp;temperature;humidity
39021;DHT22;25188;51.958;5.842;2023-04-03T00:01:30;5.80;74.40
39021;DHT22;25188;51.958;5.842;2023-04-03T00:03:56;5.70;74.50
39021;DHT22;25188;51.958;5.842;2023-04-03T00:06:22;5.80;74.80
39021;DHT22;25188;51.958;5.842;2023-04-03T00:08:49;5.70;75.00
39021;DHT22;25188;51.958;5.842;2023-04-03T00:11:14;5.70;74.70
39021;DHT22;25188;51.958;5.842;2023-04-03T00:13:40;5.70;74.80
39021;DHT22;25188;51.958;5.842;2023-04-03T00:16:08;5.60;74.70
39021;DHT22;25188;51.958;5.842;2023-04-03T00:18:35;5.60;74.90
39021;DHT22;25188;51.958;5.842;2023-04-03T00:21:01;5.60;74.90
39021;DHT22;25188;51.958;5.842;2023-04-03T00:23:26;5.60;75.20
39021;DHT22;25188;51.958;5.842;2023-04-03T00:25:52;5.60;75.40
39021;DHT22;25188;51.958;5.842;2023-04-03T00:28:18;5.50;75.50
39021;DHT22;25188;51.958;5.842;2023-04-03T00:30:49;5.50;75.70
39021;DHT22;25188;51.958;5.842;2023-04-03T00:33:15;5.50;75.70
39021;DHT22;25188;51.958;5.842;2023-04-03T00:35:41;5.40;75.50
39021;DHT22;25188;51.958;5.842;2023-04-03T00:38:07;5.40;75.70
39021;DHT22;25188;51.958;5.842;2023-04-03T00:40:37;5.40;76.00
39021;DHT22;25188;51.958;5.842;2023-04-03T00:43:14;5.40;76.00
39021;DHT22;25188;51.958;5.842;2023-04-03T00:45:45;5.30;75.60
39021;DHT22;25188;51.958;5.842;2023-04-03T00:48:18;5.30;75.80
39021;DHT22;25188;51.958;5.842;2023-04-03T00:50:45;5.30;75.90
39021;DHT22;25188;51.958;5.842;2023-04-03T00:53:15;5.30;76.00
39021;DHT22;25188;51.958;5.842;2023-04-03T00:55:42;5.20;76.40
39021;DHT22;25188;51.958;5.842;2023-04-03T00:58:08;5.20;76.70
39021;DHT22;25188;51.958;5.842;2023-04-03T01:00:37;5.10;76.50
39021;DHT22;25188;51.958;5.842;2023-04-03T01:03:04;5.20;77.00
39021;DHT22;25188;51.958;5.842;2023-04-03T01:05:30;5.20;76.80
39021;DHT22;25188;51.958;5.842;2023-04-03T01:07:56;5.20;76.80
39021;DHT22;25188;51.958;5.842;2023-04-03T01:10:23;5.10;76.70
39021;DHT22;25188;51.958;5.842;2023-04-03T01:12:50;5.10;77.20
39021;DHT22;25188;51.958;5.842;2023-04-03T01:15:22;5.10;76.90
39021;DHT22;25188;51.958;5.842;2023-04-03T01:17:51;5.10;77.30
39021;DHT22;25188;51.958;5.842;2023-04-03T01:25:53;5.00;77.60
39021;DHT22;25188;51.958;5.842;2023-04-03T01:28:22;5.00;77.50
39021;DHT22;25188;51.958;5.842;2023-04-03T01:33:41;5.00;78.00
39021;DHT22;25188;51.958;5.842;2023-04-03T01:36:08;5.00;78.60
39021;DHT22;25188;51.958;5.842;2023-04-03T01:38:33;4.90;78.10
39021;DHT22;25188;51.958;5.842;2023-04-03T01:40:59;4.90;78.20
39021;DHT22;25188;51.958;5.842;2023-04-03T01:43:25;4.90;78.40
39021;DHT22;25188;51.958;5.842;2023-04-03T01:45:51;5.00;78.70
39021;DHT22;25188;51.958;5.842;2023-04-03T01:48:18;4.90;78.40
39021;DHT22;25188;51.958;5.842;2023-04-03T01:50:43;4.80;78.60
39021;DHT22;25188;51.958;5.842;2023-04-03T01:53:09;4.80;79.20
39021;DHT22;25188;51.958;5.842;2023-04-03T01:55:35;4.80;79.00
39021;DHT22;25188;51.958;5.842;2023-04-03T01:58:01;4.80;79.20
39021;DHT22;25188;51.958;5.842;2023-04-03T02:00:26;4.80;79.20
39021;DHT22;25188;51.958;5.842;2023-04-03T02:02:53;4.80;79.20
39021;DHT22;25188;51.958;5.842;2023-04-03T02:05:18;4.70;79.70
39021;DHT22;25188;51.958;5.842;2023-04-03T02:07:44;4.70;79.60
39021;DHT22;25188;51.958;5.842;2023-04-03T02:10:10;4.70;79.90
39021;DHT22;25188;51.958;5.842;2023-04-03T02:12:36;4.70;79.70
39021;DHT22;25188;51.958;5.842;2023-04-03T02:15:01;4.70;79.60
39021;DHT22;25188;51.958;5.842;2023-04-03T02:17:27;4.60;80.20
39021;DHT22;25188;51.958;5.842;2023-04-03T02:19:53;4.60;79.80
39021;DHT22;25188;51.958;5.842;2023-04-03T02:22:19;4.60;80.20
39021;DHT22;25188;51.958;5.842;2023-04-03T02:24:45;4.60;80.40
39021;DHT22;25188;51.958;5.842;2023-04-03T02:27:11;4.60;80.40
39021;DHT22;25188;51.958;5.842;2023-04-03T02:29:36;4.50;81.00
39021;DHT22;25188;51.958;5.842;2023-04-03T02:32:02;4.50;80.60
39021;DHT22;25188;51.958;5.842;2023-04-03T02:34:28;4.50;81.30
39021;DHT22;25188;51.958;5.842;2023-04-03T02:36:53;4.50;81.00
39021;DHT22;25188;51.958;5.842;2023-04-03T02:39:19;4.50;81.00
39021;DHT22;25188;51.958;5.842;2023-04-03T02:41:45;4.40;80.90
39021;DHT22;25188;51.958;5.842;2023-04-03T02:44:11;4.40;81.30
39021;DHT22;25188;51.958;5.842;2023-04-03T02:46:37;4.40;81.40
39021;DHT22;25188;51.958;5.842;2023-04-03T02:49:03;4.40;81.90
39021;DHT22;25188;51.958;5.842;2023-04-03T02:51:29;4.50;81.70
39021;DHT22;25188;51.958;5.842;2023-04-03T02:53:55;4.40;81.50
39021;DHT22;25188;51.958;5.842;2023-04-03T02:56:21;4.40;82.00
39021;DHT22;25188;51.958;5.842;2023-04-03T02:58:47;4.30;81.70
39021;DHT22;25188;51.958;5.842;2023-04-03T03:01:13;4.40;81.80
39021;DHT22;25188;51.958;5.842;2023-04-03T03:03:39;4.30;82.40
39021;DHT22;25188;51.958;5.842;2023-04-03T03:06:11;4.30;82.50
39021;DHT22;25188;51.958;5.842;2023-04-03T03:08:38;4.30;82.20
39021;DHT22;25188;51.958;5.842;2023-04-03T03:11:04;4.20;82.20
39021;DHT22;25188;51.958;5.842;2023-04-03T03:13:30;4.20;82.30
39021;DHT22;25188;51.958;5.842;2023-04-03T03:15:56;4.20;82.20
39021;DHT22;25188;51.958;5.842;2023-04-03T03:18:22;4.20;82.30
39021;DHT22;25188;51.958;5.842;2023-04-03T03:20:58;4.10;82.50
39021;DHT22;25188;51.958;5.842;2023-04-03T03:23:25;4.10;82.60
39021;DHT22;25188;51.958;5.842;2023-04-03T03:26:01;4.10;82.90
39021;DHT22;25188;51.958;5.842;2023-04-03T03:28:30;4.10;83.10
39021;DHT22;25188;51.958;5.842;2023-04-03T03:30:57;4.10;83.30
39021;DHT22;25188;51.958;5.842;2023-04-03T03:33:23;4.10;83.50
39021;DHT22;25188;51.958;5.842;2023-04-03T03:35:48;4.10;83.50
39021;DHT22;25188;51.958;5.842;2023-04-03T03:38:14;4.10;83.40
39021;DHT22;25188;51.958;5.842;2023-04-03T03:40:40;4.10;83.80
39021;DHT22;25188;51.958;5.842;2023-04-03T03:43:05;4.10;83.80
39021;DHT22;25188;51.958;5.842;2023-04-03T03:45:31;4.00;84.10
39021;DHT22;25188;51.958;5.842;2023-04-03T03:47:57;4.00;84.10
39021;DHT22;25188;51.958;5.842;2023-04-03T03:50:22;4.00;84.10
39021;DHT22;25188;51.958;5.842;2023-04-03T03:52:48;4.00;84.40
39021;DHT22;25188;51.958;5.842;2023-04-03T03:55:14;4.00;84.30
39021;DHT22;25188;51.958;5.842;2023-04-03T03:57:39;3.90;84.50
39021;DHT22;25188;51.958;5.842;2023-04-03T04:00:06;3.90;84.90
39021;DHT22;25188;51.958;5.842;2023-04-03T04:02:32;3.90;84.70
39021;DHT22;25188;51.958;5.842;2023-04-03T04:04:58;3.90;84.90
39021;DHT22;25188;51.958;5.842;2023-04-03T04:07:24;3.90;85.00
39021;DHT22;25188;51.958;5.842;2023-04-03T04:09:49;3.80;84.80
39021;DHT22;25188;51.958;5.842;2023-04-03T04:12:15;3.90;85.50
39021;DHT22;25188;51.958;5.842;2023-04-03T04:14:41;3.80;85.50
39021;DHT22;25188;51.958;5.842;2023-04-03T04:17:06;3.80;85.30
39021;DHT22;25188;51.958;5.842;2023-04-03T04:19:32;3.80;85.10
39021;DHT22;25188;51.958;5.842;2023-04-03T04:21:58;3.70;85.40
39021;DHT22;25188;51.958;5.842;2023-04-03T04:24:24;3.70;85.80
39021;DHT22;25188;51.958;5.842;2023-04-03T04:26:50;3.70;85.90
39021;DHT22;25188;51.958;5.842;2023-04-03T04:29:16;3.70;85.80
39021;DHT22;25188;51.958;5.842;2023-04-03T04:31:41;3.70;86.00
39021;DHT22;25188;51.958;5.842;2023-04-03T04:34:07;3.60;86.00
39021;DHT22;25188;51.958;5.842;2023-04-03T04:36:33;3.60;86.00
39021;DHT22;25188;51.958;5.842;2023-04-03T04:38:59;3.50;86.00
39021;DHT22;25188;51.958;5.842;2023-04-03T04:41:25;3.50;86.40
39021;DHT22;25188;51.958;5.842;2023-04-03T04:43:51;3.50;86.50
39021;DHT22;25188;51.958;5.842;2023-04-03T04:46:17;3.50;86.30
39021;DHT22;25188;51.958;5.842;2023-04-03T04:48:43;3.50;86.60
39021;DHT22;25188;51.958;5.842;2023-04-03T04:51:09;3.50;86.60
39021;DHT22;25188;51.958;5.842;2023-04-03T04:53:35;3.40;86.80
39021;DHT22;25188;51.958;5.842;2023-04-03T04:56:00;3.40;86.70
39021;DHT22;25188;51.958;5.842;2023-04-03T04:58:26;3.40;86.90
39021;DHT22;25188;51.958;5.842;2023-04-03T05:01:18;3.30;86.90
39021;DHT22;25188;51.958;5.842;2023-04-03T05:03:44;3.30;87.20
39021;DHT22;25188;51.958;5.842;2023-04-03T05:06:10;3.30;87.40
39021;DHT22;25188;51.958;5.842;2023-04-03T05:08:35;3.30;87.50
39021;DHT22;25188;51.958;5.842;2023-04-03T05:11:01;3.20;87.30
39021;DHT22;25188;51.958;5.842;2023-04-03T05:13:27;3.20;87.30
39021;DHT22;25188;51.958;5.842;2023-04-03T05:15:53;3.20;88.40
39021;DHT22;25188;51.958;5.842;2023-04-03T05:18:18;3.20;88.10
39021;DHT22;25188;51.958;5.842;2023-04-03T05:20:44;3.20;87.80
39021;DHT22;25188;51.958;5.842;2023-04-03T05:23:10;3.30;88.20
39021;DHT22;25188;51.958;5.842;2023-04-03T05:25:39;3.10;87.70
39021;DHT22;25188;51.958;5.842;2023-04-03T05:28:06;3.10;88.10
39021;DHT22;25188;51.958;5.842;2023-04-03T05:30:31;3.10;88.40
39021;DHT22;25188;51.958;5.842;2023-04-03T05:32:58;3.10;88.70
39021;DHT22;25188;51.958;5.842;2023-04-03T05:35:24;3.20;88.60
39021;DHT22;25188;51.958;5.842;2023-04-03T05:37:50;3.10;88.90
39021;DHT22;25188;51.958;5.842;2023-04-03T05:40:15;3.10;89.10
39021;DHT22;25188;51.958;5.842;2023-04-03T05:42:41;3.10;89.20
39021;DHT22;25188;51.958;5.842;2023-04-03T05:45:07;3.10;89.20
39021;DHT22;25188;51.958;5.842;2023-04-03T05:47:33;3.10;89.20
39021;DHT22;25188;51.958;5.842;2023-04-03T05:49:58;3.10;89.30
39021;DHT22;25188;51.958;5.842;2023-04-03T05:52:28;3.10;89.50
39021;DHT22;25188;51.958;5.842;2023-04-03T05:54:54;3.20;89.50
39021;DHT22;25188;51.958;5.842;2023-04-03T05:57:20;3.10;89.30
39021;DHT22;25188;51.958;5.842;2023-04-03T05:59:46;3.20;89.50
39021;DHT22;25188;51.958;5.842;2023-04-03T06:02:14;3.20;89.70
39021;DHT22;25188;51.958;5.842;2023-04-03T06:04:44;3.20;89.80
39021;DHT22;25188;51.958;5.842;2023-04-03T06:07:24;3.20;89.70
39021;DHT22;25188;51.958;5.842;2023-04-03T06:09:54;3.30;89.80
39021;DHT22;25188;51.958;5.842;2023-04-03T06:12:21;3.20;89.70
39021;DHT22;25188;51.958;5.842;2023-04-03T06:14:47;3.30;90.00
39021;DHT22;25188;51.958;5.842;2023-04-03T06:17:14;3.30;89.90
39021;DHT22;25188;51.958;5.842;2023-04-03T06:19:41;3.30;90.00
39021;DHT22;25188;51.958;5.842;2023-04-03T06:22:07;3.30;90.10
39021;DHT22;25188;51.958;5.842;2023-04-03T06:24:32;3.30;90.00
39021;DHT22;25188;51.958;5.842;2023-04-03T06:26:58;3.40;90.00
39021;DHT22;25188;51.958;5.842;2023-04-03T06:29:27;3.40;90.00
39021;DHT22;25188;51.958;5.842;2023-04-03T06:31:52;3.30;89.90
39021;DHT22;25188;51.958;5.842;2023-04-03T06:34:18;3.40;89.80
39021;DHT22;25188;51.958;5.842;2023-04-03T06:36:46;3.40;89.90
39021;DHT22;25188;51.958;5.842;2023-04-03T06:39:18;3.40;89.80
39021;DHT22;25188;51.958;5.842;2023-04-03T06:41:46;3.40;89.70
39021;DHT22;25188;51.958;5.842;2023-04-03T06:44:12;3.50;90.00
39021;DHT22;25188;51.958;5.842;2023-04-03T06:46:39;3.50;90.00
39021;DHT22;25188;51.958;5.842;2023-04-03T06:49:05;3.50;89.80
39021;DHT22;25188;51.958;5.842;2023-04-03T06:51:33;3.60;89.70
39021;DHT22;25188;51.958;5.842;2023-04-03T06:53:59;3.50;89.80
39021;DHT22;25188;51.958;5.842;2023-04-03T06:56:26;3.60;89.90
39021;DHT22;25188;51.958;5.842;2023-04-03T06:58:53;3.60;89.90
39021;DHT22;25188;51.958;5.842;2023-04-03T07:01:24;3.60;90.00
39021;DHT22;25188;51.958;5.842;2023-04-03T07:03:52;3.70;89.80
39021;DHT22;25188;51.958;5.842;2023-04-03T07:06:18;3.70;90.00
39021;DHT22;25188;51.958;5.842;2023-04-03T07:08:45;3.80;89.50
39021;DHT22;25188;51.958;5.842;2023-04-03T07:11:12;3.80;89.30
39021;DHT22;25188;51.958;5.842;2023-04-03T07:13:38;3.90;89.40
39021;DHT22;25188;51.958;5.842;2023-04-03T07:16:04;3.90;89.10
39021;DHT22;25188;51.958;5.842;2023-04-03T07:18:32;3.90;88.90
39021;DHT22;25188;51.958;5.842;2023-04-03T07:20:58;3.90;88.70
39021;DHT22;25188;51.958;5.842;2023-04-03T07:23:24;4.00;88.70
39021;DHT22;25188;51.958;5.842;2023-04-03T07:25:51;4.00;88.80
39021;DHT22;25188;51.958;5.842;2023-04-03T07:28:18;4.00;88.40
39021;DHT22;25188;51.958;5.842;2023-04-03T07:30:53;4.00;88.10
39021;DHT22;25188;51.958;5.842;2023-04-03T07:33:21;4.10;88.10
39021;DHT22;25188;51.958;5.842;2023-04-03T07:35:47;4.10;88.00
39021;DHT22;25188;51.958;5.842;2023-04-03T07:38:13;4.10;87.70
39021;DHT22;25188;51.958;5.842;2023-04-03T07:40:39;4.10;87.60
39021;DHT22;25188;51.958;5.842;2023-04-03T07:43:05;4.20;87.40
39021;DHT22;25188;51.958;5.842;2023-04-03T07:45:32;4.20;87.00
39021;DHT22;25188;51.958;5.842;2023-04-03T07:47:59;4.20;86.80
39021;DHT22;25188;51.958;5.842;2023-04-03T07:50:25;4.30;86.70
39021;DHT22;25188;51.958;5.842;2023-04-03T07:52:51;4.30;86.70
39021;DHT22;25188;51.958;5.842;2023-04-03T07:55:18;4.30;86.40
39021;DHT22;25188;51.958;5.842;2023-04-03T07:57:43;4.40;85.90
39021;DHT22;25188;51.958;5.842;2023-04-03T08:00:09;4.40;85.70
39021;DHT22;25188;51.958;5.842;2023-04-03T08:02:35;4.40;85.50
39021;DHT22;25188;51.958;5.842;2023-04-03T08:05:01;4.40;85.10
39021;DHT22;25188;51.958;5.842;2023-04-03T08:07:26;4.40;85.00
39021;DHT22;25188;51.958;5.842;2023-04-03T08:09:52;4.60;84.20
39021;DHT22;25188;51.958;5.842;2023-04-03T08:12:18;4.50;83.90
39021;DHT22;25188;51.958;5.842;2023-04-03T08:14:44;4.60;83.90
39021;DHT22;25188;51.958;5.842;2023-04-03T08:17:10;4.70;84.00
39021;DHT22;25188;51.958;5.842;2023-04-03T08:19:40;4.70;83.70
39021;DHT22;25188;51.958;5.842;2023-04-03T08:22:09;4.80;83.30
39021;DHT22;25188;51.958;5.842;2023-04-03T08:24:35;4.80;82.90
39021;DHT22;25188;51.958;5.842;2023-04-03T08:27:01;4.90;82.40
39021;DHT22;25188;51.958;5.842;2023-04-03T08:29:27;4.90;82.50
39021;DHT22;25188;51.958;5.842;2023-04-03T08:31:53;4.90;82.30
39021;DHT22;25188;51.958;5.842;2023-04-03T08:34:19;5.00;82.10
39021;DHT22;25188;51.958;5.842;2023-04-03T08:36:45;5.10;80.80
39021;DHT22;25188;51.958;5.842;2023-04-03T08:39:12;5.20;80.60
39021;DHT22;25188;51.958;5.842;2023-04-03T08:41:38;5.20;80.00
39021;DHT22;25188;51.958;5.842;2023-04-03T08:47:24;5.30;79.20
39021;DHT22;25188;51.958;5.842;2023-04-03T08:50:00;5.40;78.60
39021;DHT22;25188;51.958;5.842;2023-04-03T08:52:39;5.50;76.80
39021;DHT22;25188;51.958;5.842;2023-04-03T08:57:45;5.60;76.30
39021;DHT22;25188;51.958;5.842;2023-04-03T09:02:43;5.80;74.30
39021;DHT22;25188;51.958;5.842;2023-04-03T09:05:16;5.90;74.40
39021;DHT22;25188;51.958;5.842;2023-04-03T09:08:07;5.90;71.80
39021;DHT22;25188;51.958;5.842;2023-04-03T09:10:37;6.00;70.70
39021;DHT22;25188;51.958;5.842;2023-04-03T09:13:19;6.10;70.10
39021;DHT22;25188;51.958;5.842;2023-04-03T09:15:48;6.20;70.10
39021;DHT22;25188;51.958;5.842;2023-04-03T09:18:19;6.30;70.40
39021;DHT22;25188;51.958;5.842;2023-04-03T09:21:08;6.30;69.20
39021;DHT22;25188;51.958;5.842;2023-04-03T09:23:47;6.40;69.50
39021;DHT22;25188;51.958;5.842;2023-04-03T09:26:26;6.50;69.20
39021;DHT22;25188;51.958;5.842;2023-04-03T09:28:57;6.60;67.10
39021;DHT22;25188;51.958;5.842;2023-04-03T09:31:27;6.70;67.40
39021;DHT22;25188;51.958;5.842;2023-04-03T09:41:29;7.00;57.00
39021;DHT22;25188;51.958;5.842;2023-04-03T09:43:55;7.20;59.50
39021;DHT22;25188;51.958;5.842;2023-04-03T09:46:53;7.10;60.70
39021;DHT22;25188;51.958;5.842;2023-04-03T09:49:22;7.10;59.70
39021;DHT22;25188;51.958;5.842;2023-04-03T09:55:32;7.30;59.50
39021;DHT22;25188;51.958;5.842;2023-04-03T09:58:04;7.40;60.00
39021;DHT22;25188;51.958;5.842;2023-04-03T10:00:36;7.40;59.60
39021;DHT22;25188;51.958;5.842;2023-04-03T10:03:39;7.50;58.50
39021;DHT22;25188;51.958;5.842;2023-04-03T10:06:41;7.60;58.40
39021;DHT22;25188;51.958;5.842;2023-04-03T10:12:37;7.90;57.30
39021;DHT22;25188;51.958;5.842;2023-04-03T10:15:12;8.30;56.30
39021;DHT22;25188;51.958;5.842;2023-04-03T10:18:02;8.60;56.70
39021;DHT22;25188;51.958;5.842;2023-04-03T10:20:51;9.20;56.90
39021;DHT22;25188;51.958;5.842;2023-04-03T10:23:58;9.70;55.40
39021;DHT22;25188;51.958;5.842;2023-04-03T10:29:46;11.40;55.60
39021;DHT22;25188;51.958;5.842;2023-04-03T10:32:52;12.40;55.10
39021;DHT22;25188;51.958;5.842;2023-04-03T10:42:18;15.60;53.40
39021;DHT22;25188;51.958;5.842;2023-04-03T11:11:58;21.30;38.40
39021;DHT22;25188;51.958;5.842;2023-04-03T11:17:59;21.90;37.70
39021;DHT22;25188;51.958;5.842;2023-04-03T11:27:03;22.70;34.40
39021;DHT22;25188;51.958;5.842;2023-04-03T11:29:43;22.80;35.20
39021;DHT22;25188;51.958;5.842;2023-04-03T11:35:05;23.20;33.00
39021;DHT22;25188;51.958;5.842;2023-04-03T11:37:45;23.40;32.70
39021;DHT22;25188;51.958;5.842;2023-04-03T11:46:58;24.00;31.80
39021;DHT22;25188;51.958;5.842;2023-04-03T11:52:55;24.40;31.80
39021;DHT22;25188;51.958;5.842;2023-04-03T11:55:42;24.70;32.20
39021;DHT22;25188;51.958;5.842;2023-04-03T11:58:13;24.70;30.90
39021;DHT22;25188;51.958;5.842;2023-04-03T12:01:08;24.80;31.30
39021;DHT22;25188;51.958;5.842;2023-04-03T12:16:41;25.40;29.20
39021;DHT22;25188;51.958;5.842;2023-04-03T12:24:28;25.60;29.60
39021;DHT22;25188;51.958;5.842;2023-04-03T12:32:17;26.20;29.50
39021;DHT22;25188;51.958;5.842;2023-04-03T12:51:19;26.50;28.50
39021;DHT22;25188;51.958;5.842;2023-04-03T12:53:46;26.70;28.80
39021;DHT22;25188;51.958;5.842;2023-04-03T12:56:38;26.80;28.90
39021;DHT22;25188;51.958;5.842;2023-04-03T12:59:15;26.90;28.60
39021;DHT22;25188;51.958;5.842;2023-04-03T13:01:41;26.90;28.50
39021;DHT22;25188;51.958;5.842;2023-04-03T13:04:10;26.90;28.70
39021;DHT22;25188;51.958;5.842;2023-04-03T13:06:42;27.10;28.50
39021;DHT22;25188;51.958;5.842;2023-04-03T13:09:29;27.30;28.40
39021;DHT22;25188;51.958;5.842;2023-04-03T13:12:01;27.50;28.30
39021;DHT22;25188;51.958;5.842;2023-04-03T13:14:28;27.60;28.40
39021;DHT22;25188;51.958;5.842;2023-04-03T13:19:25;27.70;27.60
39021;DHT22;25188;51.958;5.842;2023-04-03T13:22:38;27.60;27.40
39021;DHT22;25188;51.958;5.842;2023-04-03T13:24:46;27.50;27.60
39021;DHT22;25188;51.958;5.842;2023-04-03T13:27:13;27.40;27.50
39021;DHT22;25188;51.958;5.842;2023-04-03T13:29:39;27.20;27.50
39021;DHT22;25188;51.958;5.842;2023-04-03T13:32:06;27.20;27.60
39021;DHT22;25188;51.958;5.842;2023-04-03T13:34:38;27.40;27.70
39021;DHT22;25188;51.958;5.842;2023-04-03T13:37:06;27.40;27.60
39021;DHT22;25188;51.958;5.842;2023-04-03T13:39:35;27.40;27.80
39021;DHT22;25188;51.958;5.842;2023-04-03T13:42:16;27.50;27.90
39021;DHT22;25188;51.958;5.842;2023-04-03T13:44:43;27.60;27.50
39021;DHT22;25188;51.958;5.842;2023-04-03T13:49:46;27.60;27.60
39021;DHT22;25188;51.958;5.842;2023-04-03T13:52:33;27.50;27.30
39021;DHT22;25188;51.958;5.842;2023-04-03T13:57:59;27.40;27.40
39021;DHT22;25188;51.958;5.842;2023-04-03T14:00:34;27.50;27.50
39021;DHT22;25188;51.958;5.842;2023-04-03T14:03:01;27.50;27.40
39021;DHT22;25188;51.958;5.842;2023-04-03T14:05:27;27.30;27.20
39021;DHT22;25188;51.958;5.842;2023-04-03T14:07:54;27.40;27.40
39021;DHT22;25188;51.958;5.842;2023-04-03T14:10:20;27.50;27.50
39021;DHT22;25188;51.958;5.842;2023-04-03T14:12:46;27.60;27.40
39021;DHT22;25188;51.958;5.842;2023-04-03T14:15:23;27.60;27.40
39021;DHT22;25188;51.958;5.842;2023-04-03T14:17:50;27.70;27.30
39021;DHT22;25188;51.958;5.842;2023-04-03T14:20:19;27.80;27.50
39021;DHT22;25188;51.958;5.842;2023-04-03T14:22:46;27.80;27.60
39021;DHT22;25188;51.958;5.842;2023-04-03T14:25:12;28.00;27.40
39021;DHT22;25188;51.958;5.842;2023-04-03T14:27:41;28.00;27.30
39021;DHT22;25188;51.958;5.842;2023-04-03T14:30:12;28.10;27.40
39021;DHT22;25188;51.958;5.842;2023-04-03T14:32:39;28.10;27.50
39021;DHT22;25188;51.958;5.842;2023-04-03T14:35:05;28.20;27.50
39021;DHT22;25188;51.958;5.842;2023-04-03T14:37:32;28.10;27.30
39021;DHT22;25188;51.958;5.842;2023-04-03T14:39:59;28.10;27.30
39021;DHT22;25188;51.958;5.842;2023-04-03T14:42:32;28.00;27.20
39021;DHT22;25188;51.958;5.842;2023-04-03T14:44:59;27.80;27.10
39021;DHT22;25188;51.958;5.842;2023-04-03T14:47:28;27.70;27.30
39021;DHT22;25188;51.958;5.842;2023-04-03T14:49:54;27.50;27.30
39021;DHT22;25188;51.958;5.842;2023-04-03T14:52:23;27.40;27.40
39021;DHT22;25188;51.958;5.842;2023-04-03T14:54:50;27.30;27.40
39021;DHT22;25188;51.958;5.842;2023-04-03T14:57:17;27.20;27.50
39021;DHT22;25188;51.958;5.842;2023-04-03T14:59:44;27.30;27.50
39021;DHT22;25188;51.958;5.842;2023-04-03T15:02:31;27.30;27.50
39021;DHT22;25188;51.958;5.842;2023-04-03T15:04:58;27.40;27.60
39021;DHT22;25188;51.958;5.842;2023-04-03T15:07:26;27.50;27.50
39021;DHT22;25188;51.958;5.842;2023-04-03T15:09:52;27.50;27.50
39021;DHT22;25188;51.958;5.842;2023-04-03T15:12:18;27.50;27.10
39021;DHT22;25188;51.958;5.842;2023-04-03T15:14:44;27.40;27.40
39021;DHT22;25188;51.958;5.842;2023-04-03T15:17:16;27.10;27.40
39021;DHT22;25188;51.958;5.842;2023-04-03T15:19:43;26.90;27.60
39021;DHT22;25188;51.958;5.842;2023-04-03T15:22:14;26.80;27.70
39021;DHT22;25188;51.958;5.842;2023-04-03T15:24:40;26.80;27.70
39021;DHT22;25188;51.958;5.842;2023-04-03T15:27:06;26.80;27.90
39021;DHT22;25188;51.958;5.842;2023-04-03T15:29:32;26.70;28.00
39021;DHT22;25188;51.958;5.842;2023-04-03T15:31:57;26.50;27.90
39021;DHT22;25188;51.958;5.842;2023-04-03T15:34:23;26.40;28.10
39021;DHT22;25188;51.958;5.842;2023-04-03T15:36:50;26.30;28.10
39021;DHT22;25188;51.958;5.842;2023-04-03T15:39:17;26.30;28.10
39021;DHT22;25188;51.958;5.842;2023-04-03T15:41:44;26.30;28.10
39021;DHT22;25188;51.958;5.842;2023-04-03T15:44:10;26.20;27.90
39021;DHT22;25188;51.958;5.842;2023-04-03T15:46:37;26.00;27.90
39021;DHT22;25188;51.958;5.842;2023-04-03T15:49:04;25.80;28.10
39021;DHT22;25188;51.958;5.842;2023-04-03T15:51:30;25.70;28.30
39021;DHT22;25188;51.958;5.842;2023-04-03T15:53:56;25.50;28.40
39021;DHT22;25188;51.958;5.842;2023-04-03T15:56:22;25.50;28.50
39021;DHT22;25188;51.958;5.842;2023-04-03T15:58:48;25.30;28.50
39021;DHT22;25188;51.958;5.842;2023-04-03T16:01:13;25.20;28.60
39021;DHT22;25188;51.958;5.842;2023-04-03T16:03:40;25.00;28.60
39021;DHT22;25188;51.958;5.842;2023-04-03T16:06:14;24.80;28.60
39021;DHT22;25188;51.958;5.842;2023-04-03T16:08:41;24.50;28.80
39021;DHT22;25188;51.958;5.842;2023-04-03T16:11:07;24.00;28.90
39021;DHT22;25188;51.958;5.842;2023-04-03T16:13:33;23.80;29.30
39021;DHT22;25188;51.958;5.842;2023-04-03T16:15:59;23.40;29.30
39021;DHT22;25188;51.958;5.842;2023-04-03T16:18:26;23.10;29.50
39021;DHT22;25188;51.958;5.842;2023-04-03T16:20:52;22.80;29.80
39021;DHT22;25188;51.958;5.842;2023-04-03T16:23:18;22.60;29.80
39021;DHT22;25188;51.958;5.842;2023-04-03T16:25:43;22.20;29.90
39021;DHT22;25188;51.958;5.842;2023-04-03T16:28:12;22.00;30.00
39021;DHT22;25188;51.958;5.842;2023-04-03T16:30:43;21.80;30.30
39021;DHT22;25188;51.958;5.842;2023-04-03T16:33:10;21.50;30.40
39021;DHT22;25188;51.958;5.842;2023-04-03T16:35:36;21.30;30.80
39021;DHT22;25188;51.958;5.842;2023-04-03T16:38:03;21.10;31.10
39021;DHT22;25188;51.958;5.842;2023-04-03T16:40:29;20.80;31.50
39021;DHT22;25188;51.958;5.842;2023-04-03T16:42:54;20.50;31.50
39021;DHT22;25188;51.958;5.842;2023-04-03T16:45:20;20.30;31.70
39021;DHT22;25188;51.958;5.842;2023-04-03T16:47:46;20.10;32.10
39021;DHT22;25188;51.958;5.842;2023-04-03T16:50:12;20.00;32.40
39021;DHT22;25188;51.958;5.842;2023-04-03T16:52:38;20.00;32.60
39021;DHT22;25188;51.958;5.842;2023-04-03T16:55:04;19.80;32.80
39021;DHT22;25188;51.958;5.842;2023-04-03T16:57:30;19.70;32.90
39021;DHT22;25188;51.958;5.842;2023-04-03T16:59:56;19.70;32.80
39021;DHT22;25188;51.958;5.842;2023-04-03T17:02:22;19.60;33.50
39021;DHT22;25188;51.958;5.842;2023-04-03T17:04:52;19.40;32.80
39021;DHT22;25188;51.958;5.842;2023-04-03T17:07:19;19.20;33.10
39021;DHT22;25188;51.958;5.842;2023-04-03T17:09:45;18.90;33.30
39021;DHT22;25188;51.958;5.842;2023-04-03T17:12:11;18.60;33.60
39021;DHT22;25188;51.958;5.842;2023-04-03T17:14:37;18.40;33.80
39021;DHT22;25188;51.958;5.842;2023-04-03T17:17:03;18.10;34.10
39021;DHT22;25188;51.958;5.842;2023-04-03T17:19:29;17.90;34.60
39021;DHT22;25188;51.958;5.842;2023-04-03T17:21:56;17.60;34.80
39021;DHT22;25188;51.958;5.842;2023-04-03T17:24:22;17.10;35.20
39021;DHT22;25188;51.958;5.842;2023-04-03T17:26:48;16.70;35.60
39021;DHT22;25188;51.958;5.842;2023-04-03T17:29:14;16.50;36.10
39021;DHT22;25188;51.958;5.842;2023-04-03T17:31:39;16.40;36.30
39021;DHT22;25188;51.958;5.842;2023-04-03T17:34:06;16.20;36.60
39021;DHT22;25188;51.958;5.842;2023-04-03T17:36:33;16.00;36.90
39021;DHT22;25188;51.958;5.842;2023-04-03T17:38:59;15.80;37.30
39021;DHT22;25188;51.958;5.842;2023-04-03T17:41:25;15.60;37.30
39021;DHT22;25188;51.958;5.842;2023-04-03T17:43:51;15.30;37.30
39021;DHT22;25188;51.958;5.842;2023-04-03T17:46:20;15.20;37.70
39021;DHT22;25188;51.958;5.842;2023-04-03T17:48:46;14.90;38.30
39021;DHT22;25188;51.958;5.842;2023-04-03T17:51:14;14.60;38.40
39021;DHT22;25188;51.958;5.842;2023-04-03T17:53:41;14.40;38.50
39021;DHT22;25188;51.958;5.842;2023-04-03T17:56:09;14.20;38.90
39021;DHT22;25188;51.958;5.842;2023-04-03T17:58:35;14.00;39.00
39021;DHT22;25188;51.958;5.842;2023-04-03T18:01:16;13.80;39.30
39021;DHT22;25188;51.958;5.842;2023-04-03T18:03:43;13.60;39.70
39021;DHT22;25188;51.958;5.842;2023-04-03T18:06:11;13.30;39.80
39021;DHT22;25188;51.958;5.842;2023-04-03T18:08:41;13.10;40.20